MHLM/SAP METAR and TAF weather

Enter ICAO airport designator
Station Type Date Time Source
MHLM METAR 2019/06/16 20:00 UTC NOAA

MHLM 162000Z 36012KT 9999 SCT026 35/25 Q1009 A2980 NOSIG


Station Type Date Time Source
MHLM Decoded METAR 2019/06/16 20:00 UTC NOAA

La Mesa San Pedro Sula , Honduras (MHLM) 15-27N 087-56W 31M
Jun 16, 2019 - 04:00 PM EDT / 2019.06.16 2000 UTC
Wind: from the N (360 degrees) at 14 MPH (12 KT):0
Visibility: greater than 7 mile(s):0
Sky conditions: partly cloudy
Temperature: 95 F (35 C)
Heat index: 109.8 F (43.2 C):1
Dew Point: 77 F (25 C)
Relative Humidity: 56%
Pressure (altimeter): 29.8 in. Hg (1009 hPa)
ob: MHLM 162000Z 36012KT 9999 SCT026 35/25 Q1009 A2980 NOSIG
cycle: 20

Station Type Date Time Source
MHLM TAF 2019/06/16 18:55 UTC NOAA

TAF MHLM 161630Z 1618/1718 03010KT 9999 SCT028TCU TX35/1621Z TN24/1712Z PROB30
TEMPO 1623/1703 12008KT 7000 TSVCSH FEW028CB SCT030TCU
BECMG 1703/1705 21003KT 9999 NSW SCT025 SCT080
BECMG 1716/1718 03008KT FEW028 SCT090

Example: see airport list